Time;durP1;ratioP1;P1;durP2;ratioP2;P2;SDS_P1;SDS_P2;PMS_P1;PMS_P2;Temp;Humidity;BMP_temperature;BMP_pressure;BME280_temperature;BME280_humidity;BME280_pressure;Samples;Min_cycle;Max_cycle;Signal;HPM_P1;HPM_P2
2021/05/22 00:00:49;;;;;;;480.05;322.30;;;;;;;;;;4982386;28;20023;-79
2021/05/22 00:03:15;;;;;;;480.52;327.48;;;;;;;;;;4980690;28;20041;-78
2021/05/22 00:05:41;;;;;;;481.13;330.85;;;;;;;;;;4987196;28;20141;-78
2021/05/22 00:08:07;;;;;;;473.60;321.52;;;;;;;;;;4984344;28;20014;-78
2021/05/22 00:10:33;;;;;;;480.20;326.08;;;;;;;;;;4973836;28;20036;-80
2021/05/22 00:12:59;;;;;;;482.13;330.45;;;;;;;;;;4983428;28;20031;-78
2021/05/22 00:15:25;;;;;;;481.02;330.58;;;;;;;;;;4977490;28;20023;-79
2021/05/22 00:17:51;;;;;;;476.48;324.50;;;;;;;;;;4985390;28;20030;-78
2021/05/22 00:20:17;;;;;;;475.42;326.00;;;;;;;;;;4987732;28;20023;-79
2021/05/22 00:22:44;;;;;;;478.85;323.27;;;;;;;;;;4974681;28;20464;-78
2021/05/22 00:25:11;;;;;;;483.20;328.40;;;;;;;;;;4984162;28;20022;-79
2021/05/22 00:27:37;;;;;;;473.75;320.08;;;;;;;;;;4985285;28;20053;-79
2021/05/22 00:30:04;;;;;;;477.25;322.52;;;;;;;;;;4988781;28;20022;-79
2021/05/22 00:32:30;;;;;;;475.20;319.77;;;;;;;;;;4976401;28;20054;-78
2021/05/22 00:34:56;;;;;;;478.65;323.50;;;;;;;;;;4981135;28;20058;-78
2021/05/22 00:37:22;;;;;;;474.40;318.30;;;;;;;;;;4986834;28;20322;-80
2021/05/22 00:39:48;;;;;;;477.42;324.38;;;;;;;;;;4989525;28;20029;-78
2021/05/22 00:42:14;;;;;;;477.25;324.05;;;;;;;;;;4981412;28;20023;-77
2021/05/22 00:44:59;;;;;;;476.55;322.23;;;;;;;;;;4986029;28;20022;-78
2021/05/22 00:47:25;;;;;;;471.40;313.45;;;;;;;;;;4975836;28;20505;-78
2021/05/22 00:49:54;;;;;;;472.80;311.73;;;;;;;;;;4984671;28;20099;-75
2021/05/22 00:52:20;;;;;;;476.90;323.13;;;;;;;;;;4976107;28;20072;-80
2021/05/22 00:54:46;;;;;;;472.00;320.35;;;;;;;;;;4985797;28;20160;-80
2021/05/22 00:57:12;;;;;;;478.65;330.35;;;;;;;;;;4979419;28;20038;-79
2021/05/22 00:59:38;;;;;;;470.08;315.98;;;;;;;;;;4975628;28;20612;-79
2021/05/22 01:02:04;;;;;;;469.30;314.67;;;;;;;;;;4976749;28;20042;-80
2021/05/22 01:04:30;;;;;;;469.08;314.25;;;;;;;;;;4992094;28;20050;-79
2021/05/22 01:06:56;;;;;;;469.38;313.70;;;;;;;;;;4976855;28;20038;-79
2021/05/22 01:09:22;;;;;;;470.52;318.10;;;;;;;;;;4986498;28;20041;-77
2021/05/22 01:12:01;;;;;;;473.35;317.08;;;;;;;;;;4977771;28;20034;-79
2021/05/22 01:14:37;;;;;;;470.17;315.80;;;;;;;;;;4980197;28;20076;-78
2021/05/22 01:17:03;;;;;;;471.15;315.88;;;;;;;;;;4985424;28;20018;-79
2021/05/22 01:19:49;;;;;;;469.25;311.38;;;;;;;;;;4981550;28;20483;-77
2021/05/22 01:22:15;;;;;;;472.23;314.42;;;;;;;;;;4988597;28;20046;-77
2021/05/22 01:24:48;;;;;;;473.48;317.80;;;;;;;;;;4991129;28;20057;-80
2021/05/22 01:27:14;;;;;;;476.67;324.55;;;;;;;;;;4977027;28;20014;-79
2021/05/22 01:29:40;;;;;;;479.33;319.45;;;;;;;;;;4990589;28;20018;-80
2021/05/22 01:32:07;;;;;;;484.65;325.63;;;;;;;;;;4974045;28;20030;-79
2021/05/22 01:34:33;;;;;;;487.83;325.40;;;;;;;;;;4985218;28;20025;-80
2021/05/22 01:36:59;;;;;;;488.33;326.08;;;;;;;;;;4984664;28;20029;-79
2021/05/22 01:39:25;;;;;;;504.02;332.50;;;;;;;;;;4990699;28;20022;-78
2021/05/22 01:41:51;;;;;;;496.85;325.35;;;;;;;;;;4989375;28;20328;-80
2021/05/22 01:44:18;;;;;;;495.50;331.58;;;;;;;;;;5005702;28;20443;-77
2021/05/22 01:46:44;;;;;;;499.80;334.42;;;;;;;;;;4986893;28;20042;-78
2021/05/22 01:49:12;;;;;;;492.52;323.25;;;;;;;;;;4974073;28;20031;-77
2021/05/22 01:51:39;;;;;;;491.17;315.48;;;;;;;;;;4989089;28;20082;-77
2021/05/22 01:54:05;;;;;;;498.73;329.55;;;;;;;;;;4981228;28;20033;-77
2021/05/22 01:56:31;;;;;;;507.50;338.15;;;;;;;;;;4987077;28;20025;-77
2021/05/22 01:58:57;;;;;;;499.63;318.92;;;;;;;;;;4995115;28;20336;-76
2021/05/22 02:01:25;;;;;;;497.30;326.30;;;;;;;;;;4984441;28;20436;-77
2021/05/22 02:03:52;;;;;;;504.63;328.13;;;;;;;;;;4985351;28;20057;-76
2021/05/22 02:06:25;;;;;;;500.02;327.33;;;;;;;;;;4977967;28;20042;-77
2021/05/22 02:08:52;;;;;;;512.63;333.63;;;;;;;;;;4981058;28;20052;-78
2021/05/22 02:11:19;;;;;;;507.25;330.90;;;;;;;;;;4972175;28;20105;-77
2021/05/22 02:13:45;;;;;;;506.65;323.35;;;;;;;;;;4978322;28;20494;-76
2021/05/22 02:16:14;;;;;;;500.02;324.35;;;;;;;;;;4981253;28;20018;-77
2021/05/22 02:18:43;;;;;;;484.00;321.48;;;;;;;;;;4977912;28;20075;-77
2021/05/22 02:21:09;;;;;;;477.42;318.23;;;;;;;;;;4981219;28;20026;-77
2021/05/22 02:23:39;;;;;;;487.00;318.80;;;;;;;;;;4984258;28;20018;-76
2021/05/22 02:26:07;;;;;;;478.38;319.60;;;;;;;;;;5006771;28;20030;-77
2021/05/22 02:28:33;;;;;;;485.27;321.60;;;;;;;;;;5005810;28;20026;-76
2021/05/22 02:31:00;;;;;;;518.88;339.48;;;;;;;;;;4990139;28;20113;-76
2021/05/22 02:33:27;;;;;;;480.02;314.95;;;;;;;;;;4983576;28;20619;-78
2021/05/22 02:35:54;;;;;;;483.75;320.73;;;;;;;;;;4984316;28;20022;-77
2021/05/22 02:38:22;;;;;;;479.27;317.90;;;;;;;;;;4991244;28;20018;-78
2021/05/22 02:40:50;;;;;;;486.08;312.38;;;;;;;;;;4993770;28;20021;-77
2021/05/22 02:43:16;;;;;;;479.05;316.05;;;;;;;;;;4990868;28;20032;-77
2021/05/22 02:45:44;;;;;;;480.17;316.05;;;;;;;;;;4992693;28;20092;-77
2021/05/22 02:48:12;;;;;;;482.60;318.05;;;;;;;;;;4990600;28;20026;-76
2021/05/22 02:50:39;;;;;;;476.90;310.38;;;;;;;;;;4979249;28;20098;-78
2021/05/22 02:53:05;;;;;;;477.80;314.08;;;;;;;;;;4984639;28;20021;-75
2021/05/22 02:55:33;;;;;;;477.80;312.00;;;;;;;;;;4993483;28;20030;-77
2021/05/22 02:57:59;;;;;;;474.02;312.27;;;;;;;;;;4993807;28;20066;-77
2021/05/22 03:00:25;;;;;;;475.90;316.52;;;;;;;;;;4985419;28;20105;-77
2021/05/22 03:02:51;;;;;;;476.35;314.25;;;;;;;;;;4990793;28;20313;-77
2021/05/22 03:05:17;;;;;;;470.42;309.85;;;;;;;;;;5003968;28;20061;-79
2021/05/22 03:07:44;;;;;;;471.00;309.88;;;;;;;;;;4988638;28;20030;-77
2021/05/22 03:10:10;;;;;;;476.08;312.13;;;;;;;;;;4987232;28;20029;-78
2021/05/22 03:12:37;;;;;;;472.40;315.02;;;;;;;;;;4986445;28;20033;-77
2021/05/22 03:15:05;;;;;;;471.65;309.67;;;;;;;;;;4991207;28;20044;-76
2021/05/22 03:17:31;;;;;;;466.55;304.85;;;;;;;;;;4984328;28;20026;-78
2021/05/22 03:19:56;;;;;;;470.88;308.08;;;;;;;;;;4984667;28;20083;-77
2021/05/22 03:22:23;;;;;;;475.58;313.85;;;;;;;;;;4989419;28;20034;-77
2021/05/22 03:24:49;;;;;;;474.88;313.25;;;;;;;;;;4996759;28;20010;-76
2021/05/22 03:27:15;;;;;;;470.00;309.63;;;;;;;;;;4984288;28;20109;-78
2021/05/22 03:29:41;;;;;;;471.40;306.95;;;;;;;;;;4983414;28;20073;-76
2021/05/22 03:32:07;;;;;;;475.73;309.50;;;;;;;;;;4983675;28;20663;-78
2021/05/22 03:34:33;;;;;;;476.88;311.00;;;;;;;;;;4992209;28;20068;-77
2021/05/22 03:36:59;;;;;;;477.48;307.20;;;;;;;;;;4993362;28;20021;-78
2021/05/22 03:39:25;;;;;;;482.58;317.05;;;;;;;;;;4989091;28;20393;-77
2021/05/22 03:41:51;;;;;;;471.80;303.40;;;;;;;;;;4981000;28;20022;-78
2021/05/22 03:44:17;;;;;;;477.67;315.00;;;;;;;;;;4989589;28;20018;-78
2021/05/22 03:46:43;;;;;;;476.23;309.38;;;;;;;;;;4982513;28;20037;-77
2021/05/22 03:49:09;;;;;;;476.10;309.60;;;;;;;;;;4980695;28;20019;-77
2021/05/22 03:51:35;;;;;;;478.23;307.00;;;;;;;;;;4973615;28;20026;-77
2021/05/22 03:54:01;;;;;;;479.90;309.40;;;;;;;;;;4989945;28;20823;-78
2021/05/22 03:56:27;;;;;;;481.80;309.73;;;;;;;;;;4990656;28;20542;-77
2021/05/22 03:58:53;;;;;;;488.73;313.05;;;;;;;;;;4992538;28;20053;-79
2021/05/22 04:01:19;;;;;;;490.55;310.50;;;;;;;;;;4982647;28;20075;-78
2021/05/22 04:03:45;;;;;;;503.02;319.48;;;;;;;;;;4980836;28;20026;-76
2021/05/22 04:06:11;;;;;;;542.00;334.52;;;;;;;;;;4987263;28;20360;-76
2021/05/22 04:08:37;;;;;;;558.65;345.05;;;;;;;;;;4992715;28;20022;-77
2021/05/22 04:11:04;;;;;;;706.03;443.08;;;;;;;;;;4989016;28;20615;-78
2021/05/22 04:13:30;;;;;;;587.65;360.00;;;;;;;;;;4980431;28;20451;-77
2021/05/22 04:15:56;;;;;;;555.53;335.65;;;;;;;;;;4992070;28;20177;-77
2021/05/22 04:18:23;;;;;;;526.22;329.77;;;;;;;;;;4980356;28;20363;-77
2021/05/22 04:20:48;;;;;;;523.03;322.80;;;;;;;;;;4978540;28;20026;-76
2021/05/22 04:23:16;;;;;;;522.08;322.17;;;;;;;;;;4989159;28;20032;-78
2021/05/22 04:25:42;;;;;;;574.75;348.10;;;;;;;;;;5009244;28;20033;-78
2021/05/22 04:28:08;;;;;;;536.83;329.15;;;;;;;;;;4993135;28;20347;-78
2021/05/22 04:30:34;;;;;;;517.08;312.52;;;;;;;;;;4988621;28;20351;-78
2021/05/22 04:33:00;;;;;;;532.75;327.50;;;;;;;;;;4989342;28;20034;-78
2021/05/22 04:35:26;;;;;;;520.38;314.55;;;;;;;;;;4987574;28;20125;-78
2021/05/22 04:37:52;;;;;;;516.03;319.00;;;;;;;;;;4993121;28;20026;-77
2021/05/22 04:40:18;;;;;;;509.23;314.52;;;;;;;;;;4991501;28;20079;-77
2021/05/22 04:42:44;;;;;;;518.50;325.55;;;;;;;;;;4980913;28;20105;-77
2021/05/22 04:45:11;;;;;;;519.17;315.73;;;;;;;;;;4992589;28;20061;-78
2021/05/22 04:47:38;;;;;;;529.58;330.58;;;;;;;;;;4985958;28;20034;-78
2021/05/22 04:50:05;;;;;;;523.10;318.98;;;;;;;;;;4978942;28;20101;-78
2021/05/22 04:52:31;;;;;;;516.40;323.55;;;;;;;;;;4986877;28;20032;-79
2021/05/22 04:54:57;;;;;;;663.67;402.67;;;;;;;;;;4974594;28;20109;-77
2021/05/22 04:57:23;;;;;;;537.00;328.42;;;;;;;;;;4987299;28;20105;-77
2021/05/22 04:59:49;;;;;;;563.38;340.42;;;;;;;;;;4987378;28;20047;-77
2021/05/22 05:02:15;;;;;;;604.83;371.00;;;;;;;;;;4983592;28;20080;-80
2021/05/22 05:04:41;;;;;;;582.42;352.67;;;;;;;;;;4975346;28;20069;-79
2021/05/22 05:07:07;;;;;;;640.47;373.30;;;;;;;;;;4984702;28;20191;-77
2021/05/22 05:09:34;;;;;;;683.17;425.33;;;;;;;;;;4990879;28;20029;-77
2021/05/22 05:12:03;;;;;;;649.03;386.52;;;;;;;;;;4987544;28;20104;-78
2021/05/22 05:14:30;;;;;;;706.15;438.20;;;;;;;;;;4992280;28;20424;-77
2021/05/22 05:16:56;;;;;;;669.83;404.20;;;;;;;;;;4990375;28;20424;-78
2021/05/22 05:19:24;;;;;;;681.92;418.25;;;;;;;;;;4983058;28;20026;-78
2021/05/22 05:21:50;;;;;;;688.10;419.33;;;;;;;;;;4982624;28;20014;-77
2021/05/22 05:24:16;;;;;;;559.97;339.20;;;;;;;;;;4974167;28;20079;-78
2021/05/22 05:26:42;;;;;;;553.33;337.20;;;;;;;;;;4984260;28;20440;-78
2021/05/22 05:29:08;;;;;;;545.40;341.13;;;;;;;;;;4990618;28;20014;-76
2021/05/22 05:31:34;;;;;;;585.90;355.60;;;;;;;;;;4989236;28;20452;-76
2021/05/22 05:34:00;;;;;;;529.42;325.08;;;;;;;;;;4977822;28;20097;-77
2021/05/22 05:36:26;;;;;;;533.95;326.15;;;;;;;;;;4988779;28;20507;-77
2021/05/22 05:38:52;;;;;;;522.72;326.20;;;;;;;;;;5007974;28;20018;-77
2021/05/22 05:41:19;;;;;;;521.88;320.23;;;;;;;;;;4990300;28;20018;-76
2021/05/22 05:43:45;;;;;;;522.35;316.55;;;;;;;;;;4991011;28;20593;-77
2021/05/22 05:46:11;;;;;;;485.88;299.45;;;;;;;;;;4990907;28;20436;-77
2021/05/22 05:48:36;;;;;;;488.25;303.67;;;;;;;;;;4990516;28;20061;-78
2021/05/22 05:51:02;;;;;;;485.27;300.70;;;;;;;;;;4975554;28;20019;-77
2021/05/22 05:53:28;;;;;;;483.42;301.33;;;;;;;;;;4978937;28;20091;-78
2021/05/22 05:55:55;;;;;;;486.23;308.88;;;;;;;;;;4977283;28;20640;-77
2021/05/22 05:58:21;;;;;;;480.17;298.73;;;;;;;;;;4983644;28;20018;-78
2021/05/22 06:00:47;;;;;;;485.98;306.73;;;;;;;;;;5004360;28;20033;-77
2021/05/22 06:03:13;;;;;;;485.15;308.15;;;;;;;;;;4983130;28;20403;-77
2021/05/22 06:05:39;;;;;;;485.73;307.13;;;;;;;;;;4990781;28;20140;-77
2021/05/22 06:08:06;;;;;;;487.45;309.85;;;;;;;;;;4978270;28;20141;-77
2021/05/22 06:10:32;;;;;;;484.38;307.55;;;;;;;;;;4988083;28;20428;-77
2021/05/22 06:12:58;;;;;;;478.77;304.45;;;;;;;;;;4976390;28;20015;-78
2021/05/22 06:15:33;;;;;;;475.20;294.77;;;;;;;;;;4989494;28;20072;-77
2021/05/22 06:17:59;;;;;;;476.80;298.65;;;;;;;;;;4988633;28;20022;-78
2021/05/22 06:20:26;;;;;;;473.58;295.52;;;;;;;;;;4995377;28;20022;-77
2021/05/22 06:22:52;;;;;;;475.08;296.77;;;;;;;;;;4988569;28;20022;-77
2021/05/22 06:25:18;;;;;;;474.52;299.45;;;;;;;;;;4989590;28;20456;-78
2021/05/22 06:27:44;;;;;;;478.08;301.77;;;;;;;;;;4984217;28;20390;-77
2021/05/22 06:30:10;;;;;;;482.42;310.33;;;;;;;;;;4986391;28;20053;-79
2021/05/22 06:32:36;;;;;;;482.23;310.80;;;;;;;;;;4985902;28;20105;-78
2021/05/22 06:35:03;;;;;;;479.88;302.40;;;;;;;;;;4988628;28;20022;-78
2021/05/22 06:37:29;;;;;;;476.08;303.02;;;;;;;;;;4988189;28;20044;-77
2021/05/22 06:39:55;;;;;;;485.02;311.45;;;;;;;;;;4994313;28;20018;-76
2021/05/22 06:42:21;;;;;;;482.13;306.98;;;;;;;;;;4989931;28;20053;-77
2021/05/22 06:44:54;;;;;;;478.13;300.42;;;;;;;;;;4989875;28;20030;-77
2021/05/22 06:47:20;;;;;;;482.05;305.92;;;;;;;;;;4988064;28;20026;-77
2021/05/22 06:49:46;;;;;;;476.50;307.42;;;;;;;;;;4989081;28;20475;-77
2021/05/22 06:52:12;;;;;;;475.88;305.35;;;;;;;;;;4983276;28;20079;-77
2021/05/22 06:54:38;;;;;;;470.90;303.45;;;;;;;;;;4974401;28;20041;-77
2021/05/22 06:57:04;;;;;;;471.55;300.80;;;;;;;;;;4975290;28;20022;-78
2021/05/22 06:59:30;;;;;;;475.25;306.50;;;;;;;;;;4977123;28;20026;-79
2021/05/22 07:01:56;;;;;;;480.48;322.60;;;;;;;;;;4980808;28;20095;-79
2021/05/22 07:04:22;;;;;;;473.35;306.40;;;;;;;;;;4983416;28;20033;-76
2021/05/22 07:06:48;;;;;;;475.17;305.42;;;;;;;;;;4989300;28;20034;-77
2021/05/22 07:09:14;;;;;;;471.42;302.98;;;;;;;;;;4982940;28;20041;-77
2021/05/22 07:11:41;;;;;;;471.15;307.40;;;;;;;;;;4986673;28;20052;-78
2021/05/22 07:14:08;;;;;;;471.65;304.45;;;;;;;;;;4977055;28;20050;-78
2021/05/22 07:16:34;;;;;;;474.60;308.40;;;;;;;;;;4980393;28;20030;-77
2021/05/22 07:19:00;;;;;;;473.75;307.65;;;;;;;;;;4987509;28;20407;-78
2021/05/22 07:21:30;;;;;;;479.35;311.60;;;;;;;;;;4982991;28;20017;-82
2021/05/22 07:23:56;;;;;;;475.17;307.00;;;;;;;;;;4977918;28;20026;-77
2021/05/22 07:26:22;;;;;;;473.58;313.55;;;;;;;;;;4984984;28;20665;-77
2021/05/22 07:28:49;;;;;;;471.13;307.50;;;;;;;;;;4982886;28;20447;-77
2021/05/22 07:31:14;;;;;;;475.45;307.02;;;;;;;;;;4981067;28;20455;-78
2021/05/22 07:33:42;;;;;;;472.02;311.05;;;;;;;;;;4999473;28;20030;-79
2021/05/22 07:36:12;;;;;;;466.38;303.42;;;;;;;;;;4989778;28;20432;-78
2021/05/22 07:38:40;;;;;;;467.17;303.13;;;;;;;;;;4983964;28;20051;-79
2021/05/22 07:41:06;;;;;;;480.58;320.05;;;;;;;;;;4985345;28;20018;-79
2021/05/22 07:43:32;;;;;;;471.10;309.08;;;;;;;;;;4989081;28;20605;-77
2021/05/22 07:45:57;;;;;;;473.38;313.73;;;;;;;;;;4993153;28;20050;-77
2021/05/22 07:48:25;;;;;;;472.15;310.27;;;;;;;;;;4979146;28;20034;-76
2021/05/22 07:50:53;;;;;;;469.17;309.98;;;;;;;;;;5001504;28;20044;-79
2021/05/22 07:53:19;;;;;;;470.02;314.40;;;;;;;;;;4984534;28;20113;-77
2021/05/22 07:55:45;;;;;;;477.30;316.35;;;;;;;;;;4979559;28;20018;-77
2021/05/22 07:58:11;;;;;;;474.73;311.65;;;;;;;;;;4990994;28;20116;-79
2021/05/22 08:00:37;;;;;;;473.10;312.73;;;;;;;;;;4992680;28;20376;-78
2021/05/22 08:03:04;;;;;;;471.42;309.27;;;;;;;;;;4983974;28;20114;-79
2021/05/22 08:05:30;;;;;;;472.38;308.70;;;;;;;;;;4977820;28;20330;-79
2021/05/22 08:07:56;;;;;;;473.52;310.52;;;;;;;;;;4985657;28;20349;-77
2021/05/22 08:10:22;;;;;;;479.05;317.60;;;;;;;;;;4980480;28;20023;-78
2021/05/22 08:12:48;;;;;;;471.67;309.33;;;;;;;;;;4981406;28;20366;-77
2021/05/22 08:15:14;;;;;;;471.55;306.63;;;;;;;;;;4974437;28;20027;-77
2021/05/22 08:17:40;;;;;;;474.17;308.67;;;;;;;;;;4982695;28;20030;-78
2021/05/22 08:20:06;;;;;;;474.58;308.67;;;;;;;;;;4985891;28;20023;-78
2021/05/22 08:22:34;;;;;;;481.13;313.02;;;;;;;;;;4980841;28;20102;-80
2021/05/22 08:25:00;;;;;;;479.73;317.25;;;;;;;;;;4987756;28;20027;-78
2021/05/22 08:27:26;;;;;;;484.27;316.17;;;;;;;;;;4975797;28;20031;-80
2021/05/22 08:29:52;;;;;;;479.77;313.58;;;;;;;;;;4974488;28;20072;-79
2021/05/22 08:32:18;;;;;;;480.88;311.27;;;;;;;;;;4993717;28;20022;-77
2021/05/22 08:34:44;;;;;;;483.88;316.58;;;;;;;;;;4980257;28;20027;-79
2021/05/22 08:37:11;;;;;;;484.38;321.27;;;;;;;;;;4976997;28;20050;-78
2021/05/22 08:39:43;;;;;;;483.83;313.33;;;;;;;;;;4977387;28;20022;-78
2021/05/22 08:42:10;;;;;;;493.40;322.15;;;;;;;;;;4976334;28;20441;-79
2021/05/22 08:44:39;;;;;;;507.67;325.05;;;;;;;;;;4985020;28;20349;-77
2021/05/22 08:47:05;;;;;;;489.95;319.58;;;;;;;;;;4977277;28;20164;-77
2021/05/22 08:49:40;;;;;;;488.95;310.60;;;;;;;;;;4977372;28;20053;-77
2021/05/22 08:52:07;;;;;;;496.80;321.75;;;;;;;;;;4971616;28;20342;-79
2021/05/22 08:54:33;;;;;;;502.95;320.80;;;;;;;;;;4977601;28;20046;-77
2021/05/22 08:56:59;;;;;;;500.67;326.55;;;;;;;;;;4974358;28;20049;-77
2021/05/22 08:59:25;;;;;;;491.95;321.48;;;;;;;;;;4977855;28;20018;-80
2021/05/22 09:01:51;;;;;;;494.77;329.25;;;;;;;;;;4978118;28;20072;-78
2021/05/22 09:04:17;;;;;;;482.98;315.92;;;;;;;;;;4981947;28;20026;-78
2021/05/22 09:06:59;;;;;;;479.17;316.00;;;;;;;;;;4995164;28;20038;-78
2021/05/22 09:09:37;;;;;;;487.38;316.63;;;;;;;;;;5003583;28;20026;-79
2021/05/22 09:12:04;;;;;;;501.15;322.95;;;;;;;;;;4995051;28;20019;-78
2021/05/22 09:14:40;;;;;;;484.98;322.25;;;;;;;;;;4980799;28;20095;-78
2021/05/22 09:17:07;;;;;;;487.55;325.70;;;;;;;;;;4983908;28;20681;-78
2021/05/22 09:19:33;;;;;;;482.23;319.30;;;;;;;;;;4980842;28;20030;-78
2021/05/22 09:22:11;;;;;;;480.23;320.45;;;;;;;;;;4977552;28;20055;-78
2021/05/22 09:24:54;;;;;;;485.40;328.90;;;;;;;;;;4980741;28;20030;-78
2021/05/22 09:27:20;;;;;;;483.98;321.42;;;;;;;;;;4990156;28;20102;-79
2021/05/22 09:29:46;;;;;;;481.75;323.48;;;;;;;;;;4980709;28;20448;-77
2021/05/22 09:32:16;;;;;;;475.23;314.63;;;;;;;;;;4977833;28;20052;-77
2021/05/22 09:34:43;;;;;;;484.33;327.67;;;;;;;;;;4991112;28;20014;-78
2021/05/22 09:37:13;;;;;;;475.55;319.92;;;;;;;;;;4978790;28;20022;-78
2021/05/22 09:39:46;;;;;;;485.40;327.83;;;;;;;;;;4976112;28;20170;-78
2021/05/22 09:42:12;;;;;;;481.02;319.55;;;;;;;;;;4975664;28;20030;-78
2021/05/22 09:44:38;;;;;;;487.25;330.98;;;;;;;;;;4977598;28;20079;-77
2021/05/22 09:47:04;;;;;;;483.80;331.00;;;;;;;;;;4974992;28;20098;-79
2021/05/22 09:49:32;;;;;;;480.48;323.23;;;;;;;;;;4979706;28;20093;-78
2021/05/22 09:51:58;;;;;;;481.10;325.33;;;;;;;;;;4975260;28;20558;-78
2021/05/22 09:54:38;;;;;;;481.70;323.63;;;;;;;;;;4977694;28;20022;-79
2021/05/22 09:57:05;;;;;;;488.55;329.70;;;;;;;;;;4983477;28;20022;-73
2021/05/22 09:59:31;;;;;;;485.40;329.73;;;;;;;;;;4992686;28;20493;-78
2021/05/22 10:01:58;;;;;;;484.25;329.58;;;;;;;;;;4977573;28;20042;-77
2021/05/22 10:04:25;;;;;;;487.23;334.67;;;;;;;;;;4979239;28;20027;-78
2021/05/22 10:06:53;;;;;;;490.30;334.50;;;;;;;;;;4980539;28;20605;-79
2021/05/22 10:09:24;;;;;;;489.60;332.38;;;;;;;;;;4986180;28;20092;-79
2021/05/22 10:12:12;;;;;;;490.55;337.02;;;;;;;;;;4976717;28;20083;-77
2021/05/22 10:14:40;;;;;;;490.40;335.48;;;;;;;;;;4991381;28;20014;-76
2021/05/22 10:17:07;;;;;;;491.67;336.05;;;;;;;;;;4977321;28;20018;-78
2021/05/22 10:19:34;;;;;;;486.30;331.10;;;;;;;;;;4976992;28;20045;-77
2021/05/22 10:22:01;;;;;;;490.40;334.15;;;;;;;;;;4977797;28;20018;-77
2021/05/22 10:24:27;;;;;;;493.88;339.88;;;;;;;;;;4975728;28;20058;-79
2021/05/22 10:26:54;;;;;;;497.00;339.13;;;;;;;;;;4990891;28;20079;-78
2021/05/22 10:29:20;;;;;;;489.88;330.63;;;;;;;;;;4990907;28;20388;-80
2021/05/22 10:31:47;;;;;;;492.63;332.92;;;;;;;;;;4973916;28;20056;-77
2021/05/22 10:34:17;;;;;;;497.33;337.50;;;;;;;;;;4979754;28;20022;-78
2021/05/22 10:36:45;;;;;;;489.40;331.05;;;;;;;;;;4980885;28;20041;-78
2021/05/22 10:39:30;;;;;;;490.35;334.45;;;;;;;;;;4981782;28;20034;-79
2021/05/22 10:41:58;;;;;;;493.40;338.55;;;;;;;;;;4982370;28;20034;-79
2021/05/22 10:44:28;;;;;;;494.92;339.85;;;;;;;;;;4978520;28;20023;-78
2021/05/22 10:47:05;;;;;;;492.83;334.17;;;;;;;;;;4997505;28;20037;-76
2021/05/22 10:49:50;;;;;;;489.63;325.40;;;;;;;;;;4970733;28;20026;-77
2021/05/22 10:52:17;;;;;;;489.23;329.20;;;;;;;;;;4983451;28;20049;-78
2021/05/22 10:55:05;;;;;;;489.77;334.33;;;;;;;;;;4975064;28;20140;-75
2021/05/22 10:57:34;;;;;;;496.77;332.92;;;;;;;;;;4972225;28;20070;-83
2021/05/22 11:00:13;;;;;;;488.95;326.02;;;;;;;;;;4978787;28;20087;-80
2021/05/22 11:02:42;;;;;;;494.83;334.13;;;;;;;;;;4986143;28;20371;-77
2021/05/22 11:05:31;;;;;;;494.15;339.65;;;;;;;;;;4982912;28;20079;-78
2021/05/22 11:08:03;;;;;;;494.83;341.50;;;;;;;;;;4982125;28;20360;-78
2021/05/22 11:10:40;;;;;;;501.13;343.35;;;;;;;;;;4975270;28;20026;-79
2021/05/22 11:13:07;;;;;;;502.88;349.38;;;;;;;;;;4982900;28;20029;-79
2021/05/22 11:15:44;;;;;;;495.92;341.77;;;;;;;;;;4983160;28;20034;-78
2021/05/22 11:18:11;;;;;;;495.48;343.05;;;;;;;;;;4984800;28;20041;-79
2021/05/22 11:20:37;;;;;;;492.65;346.00;;;;;;;;;;4982170;28;20054;-77
2021/05/22 11:23:05;;;;;;;494.17;349.65;;;;;;;;;;4981143;28;20281;-78
2021/05/22 11:25:58;;;;;;;498.33;356.77;;;;;;;;;;4980591;28;20026;-76
2021/05/22 11:28:23;;;;;;;499.77;365.98;;;;;;;;;;4971832;28;20042;-77
2021/05/22 11:30:51;;;;;;;503.85;381.70;;;;;;;;;;4980403;28;20026;-77
2021/05/22 11:33:28;;;;;;;502.20;390.77;;;;;;;;;;4979039;28;20454;-79
2021/05/22 11:35:56;;;;;;;507.52;389.98;;;;;;;;;;4997746;28;20049;-78
2021/05/22 11:38:26;;;;;;;494.92;383.27;;;;;;;;;;4979899;28;20387;-78
2021/05/22 11:40:56;;;;;;;488.42;370.00;;;;;;;;;;4981635;28;20046;-78
2021/05/22 11:43:32;;;;;;;494.05;369.88;;;;;;;;;;4975804;28;20081;-76
2021/05/22 11:46:09;;;;;;;488.50;361.70;;;;;;;;;;4975324;28;20038;-79
2021/05/22 11:48:43;;;;;;;491.60;356.83;;;;;;;;;;4976959;28;20035;-80
2021/05/22 11:51:13;;;;;;;488.80;351.77;;;;;;;;;;4981728;28;20096;-77
2021/05/22 11:53:41;;;;;;;486.17;347.80;;;;;;;;;;4976141;28;20018;-78
2021/05/22 11:56:09;;;;;;;485.85;348.05;;;;;;;;;;4999822;28;20392;-78
2021/05/22 11:58:37;;;;;;;487.60;346.13;;;;;;;;;;4981753;28;20025;-77
2021/05/22 12:01:09;;;;;;;482.13;338.25;;;;;;;;;;4983604;28;20313;-78
2021/05/22 12:03:37;;;;;;;482.83;341.48;;;;;;;;;;4985504;28;20434;-78
2021/05/22 12:06:03;;;;;;;483.02;343.55;;;;;;;;;;4981374;28;20054;-77
2021/05/22 12:08:31;;;;;;;482.50;347.10;;;;;;;;;;4983645;28;20443;-80
2021/05/22 12:10:57;;;;;;;485.25;351.23;;;;;;;;;;4982849;28;20057;-78
2021/05/22 12:13:24;;;;;;;486.92;351.10;;;;;;;;;;4987192;28;20026;-77
2021/05/22 12:15:50;;;;;;;487.65;356.58;;;;;;;;;;4988099;28;20383;-77
2021/05/22 12:18:19;;;;;;;496.17;368.98;;;;;;;;;;4976459;28;20742;-76
2021/05/22 12:20:53;;;;;;;488.20;363.30;;;;;;;;;;4979020;28;20650;-77
2021/05/22 12:23:23;;;;;;;495.52;381.00;;;;;;;;;;4986969;28;20026;-77
2021/05/22 12:25:49;;;;;;;497.00;395.27;;;;;;;;;;4989163;28;20020;-78
2021/05/22 12:28:15;;;;;;;501.45;402.77;;;;;;;;;;4983999;28;20053;-77
2021/05/22 12:30:41;;;;;;;496.63;393.17;;;;;;;;;;4979251;28;20054;-78
2021/05/22 12:33:11;;;;;;;494.73;383.27;;;;;;;;;;4988103;28;20078;-77
2021/05/22 12:35:37;;;;;;;488.40;372.92;;;;;;;;;;4995715;28;20483;-78
2021/05/22 12:38:03;;;;;;;485.88;366.42;;;;;;;;;;5001597;28;20032;-77
2021/05/22 12:40:28;;;;;;;488.98;363.33;;;;;;;;;;4984094;28;20022;-78
2021/05/22 12:42:54;;;;;;;485.85;357.23;;;;;;;;;;4985084;28;20022;-78
2021/05/22 12:45:22;;;;;;;492.65;372.08;;;;;;;;;;4986741;28;20030;-79
2021/05/22 12:47:52;;;;;;;504.15;395.17;;;;;;;;;;4989226;28;20113;-77
2021/05/22 12:50:26;;;;;;;493.52;387.80;;;;;;;;;;4991344;28;20627;-79
2021/05/22 12:53:06;;;;;;;501.60;395.17;;;;;;;;;;4982953;28;20065;-77
2021/05/22 12:55:32;;;;;;;;;;;;;;;;;;4987543;28;20061;-77
2021/05/22 12:58:00;;;;;;;494.80;377.65;;;;;;;;;;5008855;28;19949;-78
2021/05/22 13:00:27;;;;;;;495.33;377.45;;;;;;;;;;4989287;28;20015;-77
2021/05/22 13:02:57;;;;;;;494.27;375.63;;;;;;;;;;4996718;28;20045;-77
2021/05/22 13:05:33;;;;;;;504.55;394.48;;;;;;;;;;4990769;28;20053;-78
2021/05/22 13:08:00;;;;;;;499.67;394.42;;;;;;;;;;5004847;28;20032;-79
2021/05/22 13:10:31;;;;;;;504.80;407.98;;;;;;;;;;4991117;28;20014;-78
2021/05/22 13:13:03;;;;;;;515.70;430.23;;;;;;;;;;5000447;28;20101;-78
2021/05/22 13:15:30;;;;;;;515.35;450.25;;;;;;;;;;4988308;28;20050;-72
2021/05/22 13:17:58;;;;;;;526.17;451.88;;;;;;;;;;4994949;28;20026;-80
2021/05/22 13:20:25;;;;;;;511.17;434.45;;;;;;;;;;4984579;28;20034;-78
2021/05/22 13:22:52;;;;;;;509.63;424.60;;;;;;;;;;4979553;28;20028;-78
2021/05/22 13:25:19;;;;;;;508.67;408.08;;;;;;;;;;4993410;28;20034;-77
2021/05/22 13:28:02;;;;;;;508.50;402.13;;;;;;;;;;4974448;28;20520;-79
2021/05/22 13:30:32;;;;;;;509.05;394.33;;;;;;;;;;4972400;28;21601;-79
2021/05/22 13:33:00;;;;;;;499.88;381.90;;;;;;;;;;4980268;28;20329;-79
2021/05/22 13:35:28;;;;;;;506.48;390.67;;;;;;;;;;4978579;28;20033;-79
2021/05/22 13:37:54;;;;;;;500.77;378.60;;;;;;;;;;4987184;28;20024;-79
2021/05/22 13:40:23;;;;;;;497.63;368.55;;;;;;;;;;4988153;28;20067;-80
2021/05/22 13:42:50;;;;;;;493.83;363.70;;;;;;;;;;4984984;28;20040;-79
2021/05/22 13:45:16;;;;;;;494.20;364.60;;;;;;;;;;4977430;28;20018;-78
2021/05/22 13:47:43;;;;;;;487.65;354.80;;;;;;;;;;4981810;28;20041;-77
2021/05/22 13:50:09;;;;;;;490.05;353.02;;;;;;;;;;4981447;28;20013;-80
2021/05/22 13:52:35;;;;;;;492.23;356.50;;;;;;;;;;4980099;28;20450;-79
2021/05/22 13:55:01;;;;;;;491.95;354.38;;;;;;;;;;4984643;28;20604;-79
2021/05/22 13:57:27;;;;;;;490.33;350.88;;;;;;;;;;4998371;28;20025;-79